sensor_id;sensor_type;location;lat;lon;timestamp;P1;durP1;ratioP1;P2;durP2;ratioP2
20657;SDS011;10488;50.846;4.078;2022-09-01T00:02:00;5.93;;;2.70;;
20657;SDS011;10488;50.846;4.078;2022-09-01T00:04:32;5.55;;;2.70;;
20657;SDS011;10488;50.846;4.078;2022-09-01T00:07:05;6.82;;;2.95;;
20657;SDS011;10488;50.846;4.078;2022-09-01T00:09:32;3.15;;;2.40;;
20657;SDS011;10488;50.846;4.078;2022-09-01T00:11:59;4.85;;;2.55;;
20657;SDS011;10488;50.846;4.078;2022-09-01T00:14:27;9.65;;;2.70;;
20657;SDS011;10488;50.846;4.078;2022-09-01T00:16:55;5.72;;;2.40;;
20657;SDS011;10488;50.846;4.078;2022-09-01T00:19:25;6.80;;;3.30;;
20657;SDS011;10488;50.846;4.078;2022-09-01T00:21:53;3.05;;;2.55;;
20657;SDS011;10488;50.846;4.078;2022-09-01T00:24:20;7.70;;;2.90;;
20657;SDS011;10488;50.846;4.078;2022-09-01T00:26:46;4.22;;;2.83;;
20657;SDS011;10488;50.846;4.078;2022-09-01T00:29:12;8.40;;;3.00;;
20657;SDS011;10488;50.846;4.078;2022-09-01T00:31:39;5.68;;;2.50;;
20657;SDS011;10488;50.846;4.078;2022-09-01T00:34:05;9.77;;;2.85;;
20657;SDS011;10488;50.846;4.078;2022-09-01T00:36:31;5.05;;;2.80;;
20657;SDS011;10488;50.846;4.078;2022-09-01T00:38:57;4.63;;;2.40;;
20657;SDS011;10488;50.846;4.078;2022-09-01T00:41:23;6.90;;;2.67;;
20657;SDS011;10488;50.846;4.078;2022-09-01T00:43:53;6.75;;;2.85;;
20657;SDS011;10488;50.846;4.078;2022-09-01T00:46:34;7.85;;;2.70;;
20657;SDS011;10488;50.846;4.078;2022-09-01T00:51:33;4.57;;;2.70;;
20657;SDS011;10488;50.846;4.078;2022-09-01T00:54:02;6.50;;;2.97;;
20657;SDS011;10488;50.846;4.078;2022-09-01T00:56:30;4.38;;;3.03;;
20657;SDS011;10488;50.846;4.078;2022-09-01T00:58:58;6.95;;;3.20;;
20657;SDS011;10488;50.846;4.078;2022-09-01T01:01:24;6.40;;;2.85;;
20657;SDS011;10488;50.846;4.078;2022-09-01T01:03:50;6.47;;;2.92;;
20657;SDS011;10488;50.846;4.078;2022-09-01T01:06:16;6.63;;;2.75;;
20657;SDS011;10488;50.846;4.078;2022-09-01T01:08:44;3.70;;;2.67;;
20657;SDS011;10488;50.846;4.078;2022-09-01T01:11:23;5.47;;;2.97;;
20657;SDS011;10488;50.846;4.078;2022-09-01T01:13:52;5.95;;;2.88;;
20657;SDS011;10488;50.846;4.078;2022-09-01T01:16:23;8.30;;;2.72;;
20657;SDS011;10488;50.846;4.078;2022-09-01T01:18:50;7.03;;;2.80;;
20657;SDS011;10488;50.846;4.078;2022-09-01T01:21:18;6.30;;;2.50;;
20657;SDS011;10488;50.846;4.078;2022-09-01T01:26:49;4.97;;;2.30;;
20657;SDS011;10488;50.846;4.078;2022-09-01T01:29:16;7.07;;;2.60;;
20657;SDS011;10488;50.846;4.078;2022-09-01T01:31:42;6.90;;;2.78;;
20657;SDS011;10488;50.846;4.078;2022-09-01T01:34:08;9.05;;;2.70;;
20657;SDS011;10488;50.846;4.078;2022-09-01T01:36:36;6.50;;;2.85;;
20657;SDS011;10488;50.846;4.078;2022-09-01T01:39:04;4.55;;;2.22;;
20657;SDS011;10488;50.846;4.078;2022-09-01T01:41:32;5.22;;;2.47;;
20657;SDS011;10488;50.846;4.078;2022-09-01T01:44:00;5.50;;;2.55;;
20657;SDS011;10488;50.846;4.078;2022-09-01T01:46:30;5.50;;;2.40;;
20657;SDS011;10488;50.846;4.078;2022-09-01T01:48:57;4.43;;;2.38;;
20657;SDS011;10488;50.846;4.078;2022-09-01T01:51:23;8.70;;;2.50;;
20657;SDS011;10488;50.846;4.078;2022-09-01T01:53:52;4.88;;;2.80;;
20657;SDS011;10488;50.846;4.078;2022-09-01T01:56:20;2.65;;;2.35;;
20657;SDS011;10488;50.846;4.078;2022-09-01T01:58:50;5.40;;;2.47;;
20657;SDS011;10488;50.846;4.078;2022-09-01T02:01:19;3.88;;;2.55;;
20657;SDS011;10488;50.846;4.078;2022-09-01T02:03:48;5.72;;;2.22;;
20657;SDS011;10488;50.846;4.078;2022-09-01T02:06:17;7.95;;;2.05;;
20657;SDS011;10488;50.846;4.078;2022-09-01T02:08:47;5.80;;;2.58;;
20657;SDS011;10488;50.846;4.078;2022-09-01T02:11:12;3.80;;;2.60;;
20657;SDS011;10488;50.846;4.078;2022-09-01T02:13:41;8.63;;;2.78;;
20657;SDS011;10488;50.846;4.078;2022-09-01T02:16:07;4.75;;;2.40;;
20657;SDS011;10488;50.846;4.078;2022-09-01T02:18:40;4.35;;;2.63;;
20657;SDS011;10488;50.846;4.078;2022-09-01T02:21:08;6.22;;;2.60;;
20657;SDS011;10488;50.846;4.078;2022-09-01T02:23:36;4.43;;;2.42;;
20657;SDS011;10488;50.846;4.078;2022-09-01T02:26:05;5.65;;;2.30;;
20657;SDS011;10488;50.846;4.078;2022-09-01T02:28:33;6.80;;;2.80;;
20657;SDS011;10488;50.846;4.078;2022-09-01T02:31:02;5.40;;;2.80;;
20657;SDS011;10488;50.846;4.078;2022-09-01T02:33:29;3.30;;;2.40;;
20657;SDS011;10488;50.846;4.078;2022-09-01T02:35:57;4.55;;;2.55;;
20657;SDS011;10488;50.846;4.078;2022-09-01T02:38:28;5.20;;;2.55;;
20657;SDS011;10488;50.846;4.078;2022-09-01T02:40:57;7.85;;;2.38;;
20657;SDS011;10488;50.846;4.078;2022-09-01T02:43:25;8.10;;;2.65;;
20657;SDS011;10488;50.846;4.078;2022-09-01T02:45:52;5.50;;;2.22;;
20657;SDS011;10488;50.846;4.078;2022-09-01T02:48:31;6.68;;;2.97;;
20657;SDS011;10488;50.846;4.078;2022-09-01T02:51:02;7.03;;;3.28;;
20657;SDS011;10488;50.846;4.078;2022-09-01T02:53:30;3.17;;;2.20;;
20657;SDS011;10488;50.846;4.078;2022-09-01T02:55:59;3.78;;;2.38;;
20657;SDS011;10488;50.846;4.078;2022-09-01T02:58:27;5.80;;;2.55;;
20657;SDS011;10488;50.846;4.078;2022-09-01T03:00:54;5.10;;;2.55;;
20657;SDS011;10488;50.846;4.078;2022-09-01T03:03:22;4.05;;;2.35;;
20657;SDS011;10488;50.846;4.078;2022-09-01T03:05:49;5.75;;;2.17;;
20657;SDS011;10488;50.846;4.078;2022-09-01T03:08:21;6.72;;;2.70;;
20657;SDS011;10488;50.846;4.078;2022-09-01T03:10:50;4.90;;;2.20;;
20657;SDS011;10488;50.846;4.078;2022-09-01T03:13:21;4.22;;;2.67;;
20657;SDS011;10488;50.846;4.078;2022-09-01T03:15:48;6.00;;;2.70;;
20657;SDS011;10488;50.846;4.078;2022-09-01T03:18:14;7.22;;;2.70;;
20657;SDS011;10488;50.846;4.078;2022-09-01T03:20:42;4.32;;;2.40;;
20657;SDS011;10488;50.846;4.078;2022-09-01T03:23:11;6.43;;;2.80;;
20657;SDS011;10488;50.846;4.078;2022-09-01T03:25:40;5.25;;;2.55;;
20657;SDS011;10488;50.846;4.078;2022-09-01T03:28:07;8.18;;;2.75;;
20657;SDS011;10488;50.846;4.078;2022-09-01T03:30:37;4.60;;;2.33;;
20657;SDS011;10488;50.846;4.078;2022-09-01T03:33:05;5.50;;;2.17;;
20657;SDS011;10488;50.846;4.078;2022-09-01T03:35:31;3.30;;;1.83;;
20657;SDS011;10488;50.846;4.078;2022-09-01T03:37:58;5.35;;;2.25;;
20657;SDS011;10488;50.846;4.078;2022-09-01T03:40:26;8.50;;;2.38;;
20657;SDS011;10488;50.846;4.078;2022-09-01T03:42:53;5.95;;;2.30;;
20657;SDS011;10488;50.846;4.078;2022-09-01T03:45:19;5.57;;;2.65;;
20657;SDS011;10488;50.846;4.078;2022-09-01T03:47:46;4.93;;;2.35;;
20657;SDS011;10488;50.846;4.078;2022-09-01T03:50:14;5.78;;;2.30;;
20657;SDS011;10488;50.846;4.078;2022-09-01T03:52:47;6.47;;;2.67;;
20657;SDS011;10488;50.846;4.078;2022-09-01T03:55:21;7.28;;;2.85;;
20657;SDS011;10488;50.846;4.078;2022-09-01T03:57:52;5.72;;;3.25;;
20657;SDS011;10488;50.846;4.078;2022-09-01T04:00:20;7.15;;;2.78;;
20657;SDS011;10488;50.846;4.078;2022-09-01T04:02:49;7.07;;;2.95;;
20657;SDS011;10488;50.846;4.078;2022-09-01T04:05:19;3.90;;;2.80;;
20657;SDS011;10488;50.846;4.078;2022-09-01T04:07:47;4.72;;;3.17;;
20657;SDS011;10488;50.846;4.078;2022-09-01T04:10:14;10.15;;;3.65;;
20657;SDS011;10488;50.846;4.078;2022-09-01T04:12:42;7.30;;;3.22;;
20657;SDS011;10488;50.846;4.078;2022-09-01T04:15:08;8.52;;;3.60;;
20657;SDS011;10488;50.846;4.078;2022-09-01T04:17:34;4.95;;;2.78;;
20657;SDS011;10488;50.846;4.078;2022-09-01T04:20:19;6.50;;;3.03;;
20657;SDS011;10488;50.846;4.078;2022-09-01T04:22:46;7.78;;;3.15;;
20657;SDS011;10488;50.846;4.078;2022-09-01T04:25:14;6.93;;;3.47;;
20657;SDS011;10488;50.846;4.078;2022-09-01T04:27:51;5.57;;;2.90;;
20657;SDS011;10488;50.846;4.078;2022-09-01T04:30:21;6.88;;;2.50;;
20657;SDS011;10488;50.846;4.078;2022-09-01T04:32:51;7.72;;;2.58;;
20657;SDS011;10488;50.846;4.078;2022-09-01T04:35:21;4.28;;;2.60;;
20657;SDS011;10488;50.846;4.078;2022-09-01T04:37:57;7.75;;;3.42;;
20657;SDS011;10488;50.846;4.078;2022-09-01T04:40:24;6.05;;;3.05;;
20657;SDS011;10488;50.846;4.078;2022-09-01T04:42:50;7.18;;;3.03;;
20657;SDS011;10488;50.846;4.078;2022-09-01T04:45:16;9.57;;;3.28;;
20657;SDS011;10488;50.846;4.078;2022-09-01T04:47:46;5.00;;;3.03;;
20657;SDS011;10488;50.846;4.078;2022-09-01T04:50:12;5.50;;;2.78;;
20657;SDS011;10488;50.846;4.078;2022-09-01T04:52:41;4.65;;;3.00;;
20657;SDS011;10488;50.846;4.078;2022-09-01T04:55:12;11.45;;;3.20;;
20657;SDS011;10488;50.846;4.078;2022-09-01T04:57:42;5.03;;;3.10;;
20657;SDS011;10488;50.846;4.078;2022-09-01T05:00:14;6.85;;;3.05;;
20657;SDS011;10488;50.846;4.078;2022-09-01T05:02:50;6.72;;;3.22;;
20657;SDS011;10488;50.846;4.078;2022-09-01T05:05:18;9.23;;;3.58;;
20657;SDS011;10488;50.846;4.078;2022-09-01T05:07:46;6.60;;;3.65;;
20657;SDS011;10488;50.846;4.078;2022-09-01T05:10:20;6.75;;;3.33;;
20657;SDS011;10488;50.846;4.078;2022-09-01T05:12:47;7.32;;;3.50;;
20657;SDS011;10488;50.846;4.078;2022-09-01T05:15:13;7.50;;;3.30;;
20657;SDS011;10488;50.846;4.078;2022-09-01T05:17:41;6.30;;;3.25;;
20657;SDS011;10488;50.846;4.078;2022-09-01T05:20:08;5.20;;;3.13;;
20657;SDS011;10488;50.846;4.078;2022-09-01T05:22:34;9.00;;;3.60;;
20657;SDS011;10488;50.846;4.078;2022-09-01T05:25:00;6.63;;;2.95;;
20657;SDS011;10488;50.846;4.078;2022-09-01T05:27:37;4.85;;;3.10;;
20657;SDS011;10488;50.846;4.078;2022-09-01T05:30:05;10.73;;;3.35;;
20657;SDS011;10488;50.846;4.078;2022-09-01T05:32:33;7.05;;;3.75;;
20657;SDS011;10488;50.846;4.078;2022-09-01T05:35:01;13.82;;;3.20;;
20657;SDS011;10488;50.846;4.078;2022-09-01T05:37:33;12.32;;;3.42;;
20657;SDS011;10488;50.846;4.078;2022-09-01T05:40:02;5.30;;;3.03;;
20657;SDS011;10488;50.846;4.078;2022-09-01T05:42:29;12.65;;;3.53;;
20657;SDS011;10488;50.846;4.078;2022-09-01T05:44:56;9.52;;;3.30;;
20657;SDS011;10488;50.846;4.078;2022-09-01T05:47:22;5.75;;;3.00;;
20657;SDS011;10488;50.846;4.078;2022-09-01T05:49:50;7.03;;;3.15;;
20657;SDS011;10488;50.846;4.078;2022-09-01T05:52:17;7.75;;;3.60;;
20657;SDS011;10488;50.846;4.078;2022-09-01T05:54:49;14.02;;;3.10;;
20657;SDS011;10488;50.846;4.078;2022-09-01T05:57:17;9.63;;;2.78;;
20657;SDS011;10488;50.846;4.078;2022-09-01T05:59:46;4.70;;;2.78;;
20657;SDS011;10488;50.846;4.078;2022-09-01T06:02:17;7.28;;;2.90;;
20657;SDS011;10488;50.846;4.078;2022-09-01T06:04:46;8.52;;;2.55;;
20657;SDS011;10488;50.846;4.078;2022-09-01T06:07:13;6.47;;;2.47;;
20657;SDS011;10488;50.846;4.078;2022-09-01T06:09:42;8.38;;;2.83;;
20657;SDS011;10488;50.846;4.078;2022-09-01T06:12:10;7.68;;;2.35;;
20657;SDS011;10488;50.846;4.078;2022-09-01T06:14:44;7.53;;;3.33;;
20657;SDS011;10488;50.846;4.078;2022-09-01T06:17:11;5.93;;;2.78;;
20657;SDS011;10488;50.846;4.078;2022-09-01T06:19:40;9.50;;;2.88;;
20657;SDS011;10488;50.846;4.078;2022-09-01T06:22:06;8.85;;;3.25;;
20657;SDS011;10488;50.846;4.078;2022-09-01T06:24:34;7.82;;;2.80;;
20657;SDS011;10488;50.846;4.078;2022-09-01T06:27:01;5.18;;;2.65;;
20657;SDS011;10488;50.846;4.078;2022-09-01T06:29:26;6.40;;;2.88;;
20657;SDS011;10488;50.846;4.078;2022-09-01T06:31:55;7.75;;;3.00;;
20657;SDS011;10488;50.846;4.078;2022-09-01T06:34:21;12.23;;;3.63;;
20657;SDS011;10488;50.846;4.078;2022-09-01T06:36:47;4.70;;;3.17;;
20657;SDS011;10488;50.846;4.078;2022-09-01T06:39:16;6.97;;;3.00;;
20657;SDS011;10488;50.846;4.078;2022-09-01T06:41:45;11.90;;;3.70;;
20657;SDS011;10488;50.846;4.078;2022-09-01T06:44:16;10.23;;;3.65;;
20657;SDS011;10488;50.846;4.078;2022-09-01T06:46:51;9.13;;;3.58;;
20657;SDS011;10488;50.846;4.078;2022-09-01T06:49:19;14.57;;;3.90;;
20657;SDS011;10488;50.846;4.078;2022-09-01T06:51:45;10.52;;;4.10;;
20657;SDS011;10488;50.846;4.078;2022-09-01T06:54:12;12.90;;;3.70;;
20657;SDS011;10488;50.846;4.078;2022-09-01T06:56:38;8.68;;;3.83;;
20657;SDS011;10488;50.846;4.078;2022-09-01T06:59:04;8.40;;;4.45;;
20657;SDS011;10488;50.846;4.078;2022-09-01T07:01:32;10.80;;;4.40;;
20657;SDS011;10488;50.846;4.078;2022-09-01T07:03:58;12.93;;;4.18;;
20657;SDS011;10488;50.846;4.078;2022-09-01T07:06:25;13.70;;;4.25;;
20657;SDS011;10488;50.846;4.078;2022-09-01T07:08:54;11.70;;;4.57;;
20657;SDS011;10488;50.846;4.078;2022-09-01T07:11:27;12.73;;;5.13;;
20657;SDS011;10488;50.846;4.078;2022-09-01T07:13:56;12.82;;;5.95;;
20657;SDS011;10488;50.846;4.078;2022-09-01T07:16:26;15.77;;;4.88;;
20657;SDS011;10488;50.846;4.078;2022-09-01T07:18:55;13.82;;;4.93;;
20657;SDS011;10488;50.846;4.078;2022-09-01T07:21:22;10.43;;;4.47;;
20657;SDS011;10488;50.846;4.078;2022-09-01T07:23:49;13.68;;;4.70;;
20657;SDS011;10488;50.846;4.078;2022-09-01T07:26:15;17.15;;;5.07;;
20657;SDS011;10488;50.846;4.078;2022-09-01T07:28:44;9.07;;;4.75;;
20657;SDS011;10488;50.846;4.078;2022-09-01T07:31:18;11.23;;;5.13;;
20657;SDS011;10488;50.846;4.078;2022-09-01T07:33:45;12.30;;;5.40;;
20657;SDS011;10488;50.846;4.078;2022-09-01T07:36:13;11.13;;;6.05;;
20657;SDS011;10488;50.846;4.078;2022-09-01T07:38:40;14.48;;;5.50;;
20657;SDS011;10488;50.846;4.078;2022-09-01T07:41:07;12.10;;;5.50;;
20657;SDS011;10488;50.846;4.078;2022-09-01T07:43:35;14.27;;;5.38;;
20657;SDS011;10488;50.846;4.078;2022-09-01T07:46:02;10.95;;;6.03;;
20657;SDS011;10488;50.846;4.078;2022-09-01T07:48:29;13.27;;;5.22;;
20657;SDS011;10488;50.846;4.078;2022-09-01T07:50:54;12.77;;;5.47;;
20657;SDS011;10488;50.846;4.078;2022-09-01T07:53:25;15.60;;;5.50;;
20657;SDS011;10488;50.846;4.078;2022-09-01T07:55:55;13.40;;;5.28;;
20657;SDS011;10488;50.846;4.078;2022-09-01T07:58:24;10.10;;;5.18;;
20657;SDS011;10488;50.846;4.078;2022-09-01T08:00:52;12.70;;;4.88;;
20657;SDS011;10488;50.846;4.078;2022-09-01T08:03:20;10.02;;;5.07;;
20657;SDS011;10488;50.846;4.078;2022-09-01T08:05:47;8.45;;;5.45;;
20657;SDS011;10488;50.846;4.078;2022-09-01T08:08:17;10.75;;;5.20;;
20657;SDS011;10488;50.846;4.078;2022-09-01T08:10:43;12.98;;;5.25;;
20657;SDS011;10488;50.846;4.078;2022-09-01T08:13:10;9.70;;;4.78;;
20657;SDS011;10488;50.846;4.078;2022-09-01T08:15:38;14.48;;;5.63;;
20657;SDS011;10488;50.846;4.078;2022-09-01T08:18:04;10.60;;;4.47;;
20657;SDS011;10488;50.846;4.078;2022-09-01T08:20:31;8.95;;;4.88;;
20657;SDS011;10488;50.846;4.078;2022-09-01T08:23:01;9.48;;;4.13;;
20657;SDS011;10488;50.846;4.078;2022-09-01T08:25:27;7.75;;;4.95;;
20657;SDS011;10488;50.846;4.078;2022-09-01T08:27:53;12.68;;;5.15;;
20657;SDS011;10488;50.846;4.078;2022-09-01T08:30:19;7.43;;;4.25;;
20657;SDS011;10488;50.846;4.078;2022-09-01T08:32:45;16.13;;;4.30;;
20657;SDS011;10488;50.846;4.078;2022-09-01T08:35:11;12.27;;;4.40;;
20657;SDS011;10488;50.846;4.078;2022-09-01T08:37:38;15.77;;;5.00;;
20657;SDS011;10488;50.846;4.078;2022-09-01T08:40:04;9.18;;;4.25;;
20657;SDS011;10488;50.846;4.078;2022-09-01T08:45:51;8.48;;;4.55;;
20657;SDS011;10488;50.846;4.078;2022-09-01T08:48:20;6.60;;;4.07;;
20657;SDS011;10488;50.846;4.078;2022-09-01T08:50:58;23.83;;;5.38;;
20657;SDS011;10488;50.846;4.078;2022-09-01T08:53:45;15.68;;;4.25;;
20657;SDS011;10488;50.846;4.078;2022-09-01T08:56:17;10.50;;;3.97;;
20657;SDS011;10488;50.846;4.078;2022-09-01T08:58:43;9.68;;;4.45;;
20657;SDS011;10488;50.846;4.078;2022-09-01T09:01:17;11.63;;;3.80;;
20657;SDS011;10488;50.846;4.078;2022-09-01T09:06:23;10.80;;;3.65;;
20657;SDS011;10488;50.846;4.078;2022-09-01T09:09:03;9.52;;;3.70;;
20657;SDS011;10488;50.846;4.078;2022-09-01T09:16:55;5.82;;;3.72;;
20657;SDS011;10488;50.846;4.078;2022-09-01T09:21:56;9.60;;;3.40;;
20657;SDS011;10488;50.846;4.078;2022-09-01T09:26:53;7.03;;;4.07;;
20657;SDS011;10488;50.846;4.078;2022-09-01T09:29:21;12.68;;;4.70;;
20657;SDS011;10488;50.846;4.078;2022-09-01T09:31:47;4.80;;;3.33;;
20657;SDS011;10488;50.846;4.078;2022-09-01T09:36:52;11.93;;;3.75;;
20657;SDS011;10488;50.846;4.078;2022-09-01T09:39:18;9.43;;;3.42;;
20657;SDS011;10488;50.846;4.078;2022-09-01T09:42:00;9.02;;;2.78;;
20657;SDS011;10488;50.846;4.078;2022-09-01T09:44:31;3.88;;;2.90;;
20657;SDS011;10488;50.846;4.078;2022-09-01T09:46:57;6.93;;;3.28;;
20657;SDS011;10488;50.846;4.078;2022-09-01T09:49:28;6.47;;;2.90;;
20657;SDS011;10488;50.846;4.078;2022-09-01T09:54:28;9.93;;;3.03;;
20657;SDS011;10488;50.846;4.078;2022-09-01T09:57:05;6.55;;;2.92;;
20657;SDS011;10488;50.846;4.078;2022-09-01T09:59:36;10.05;;;2.90;;
20657;SDS011;10488;50.846;4.078;2022-09-01T10:04:57;7.22;;;2.40;;
20657;SDS011;10488;50.846;4.078;2022-09-01T10:07:33;7.65;;;2.30;;
20657;SDS011;10488;50.846;4.078;2022-09-01T10:10:03;3.72;;;2.45;;
20657;SDS011;10488;50.846;4.078;2022-09-01T10:12:31;11.90;;;2.53;;
20657;SDS011;10488;50.846;4.078;2022-09-01T10:15:03;6.35;;;2.17;;
20657;SDS011;10488;50.846;4.078;2022-09-01T10:17:41;4.65;;;2.70;;
20657;SDS011;10488;50.846;4.078;2022-09-01T10:20:19;3.10;;;1.98;;
20657;SDS011;10488;50.846;4.078;2022-09-01T10:22:47;3.30;;;2.05;;
20657;SDS011;10488;50.846;4.078;2022-09-01T10:25:27;12.50;;;2.83;;
20657;SDS011;10488;50.846;4.078;2022-09-01T10:28:14;3.65;;;1.92;;
20657;SDS011;10488;50.846;4.078;2022-09-01T10:30:45;4.20;;;1.90;;
20657;SDS011;10488;50.846;4.078;2022-09-01T10:33:13;4.75;;;1.42;;
20657;SDS011;10488;50.846;4.078;2022-09-01T10:35:41;3.30;;;1.90;;
20657;SDS011;10488;50.846;4.078;2022-09-01T10:38:13;3.63;;;2.17;;
20657;SDS011;10488;50.846;4.078;2022-09-01T10:40:42;1.95;;;1.75;;
20657;SDS011;10488;50.846;4.078;2022-09-01T10:43:23;4.53;;;1.90;;
20657;SDS011;10488;50.846;4.078;2022-09-01T10:45:59;5.47;;;1.70;;
20657;SDS011;10488;50.846;4.078;2022-09-01T10:48:55;5.80;;;1.80;;
20657;SDS011;10488;50.846;4.078;2022-09-01T10:56:24;1.67;;;1.42;;
20657;SDS011;10488;50.846;4.078;2022-09-01T11:02:23;3.40;;;1.95;;
20657;SDS011;10488;50.846;4.078;2022-09-01T11:07:49;2.60;;;1.27;;
20657;SDS011;10488;50.846;4.078;2022-09-01T11:15:48;1.73;;;1.30;;
20657;SDS011;10488;50.846;4.078;2022-09-01T11:18:15;3.88;;;1.80;;
20657;SDS011;10488;50.846;4.078;2022-09-01T11:20:50;4.55;;;1.40;;
20657;SDS011;10488;50.846;4.078;2022-09-01T11:25:53;2.58;;;1.92;;
20657;SDS011;10488;50.846;4.078;2022-09-01T11:36:15;6.93;;;1.63;;
20657;SDS011;10488;50.846;4.078;2022-09-01T11:38:55;8.43;;;1.42;;
20657;SDS011;10488;50.846;4.078;2022-09-01T11:41:29;2.88;;;1.40;;
20657;SDS011;10488;50.846;4.078;2022-09-01T11:50:00;4.55;;;1.17;;
20657;SDS011;10488;50.846;4.078;2022-09-01T11:52:29;5.15;;;1.65;;
20657;SDS011;10488;50.846;4.078;2022-09-01T11:54:58;3.53;;;1.65;;
20657;SDS011;10488;50.846;4.078;2022-09-01T11:57:31;5.68;;;1.35;;
20657;SDS011;10488;50.846;4.078;2022-09-01T12:00:06;4.53;;;1.30;;
20657;SDS011;10488;50.846;4.078;2022-09-01T12:02:42;4.13;;;1.40;;
20657;SDS011;10488;50.846;4.078;2022-09-01T12:05:27;3.20;;;1.42;;
20657;SDS011;10488;50.846;4.078;2022-09-01T12:07:58;5.03;;;1.85;;
20657;SDS011;10488;50.846;4.078;2022-09-01T12:10:36;2.47;;;1.35;;
20657;SDS011;10488;50.846;4.078;2022-09-01T12:13:06;1.35;;;1.25;;
20657;SDS011;10488;50.846;4.078;2022-09-01T12:15:35;1.90;;;1.50;;
20657;SDS011;10488;50.846;4.078;2022-09-01T12:20:46;3.72;;;1.60;;
20657;SDS011;10488;50.846;4.078;2022-09-01T12:25:56;3.47;;;1.67;;
20657;SDS011;10488;50.846;4.078;2022-09-01T12:28:28;3.55;;;1.10;;
20657;SDS011;10488;50.846;4.078;2022-09-01T12:30:57;3.70;;;1.88;;
20657;SDS011;10488;50.846;4.078;2022-09-01T12:33:24;3.10;;;1.83;;
20657;SDS011;10488;50.846;4.078;2022-09-01T12:35:50;3.15;;;1.50;;
20657;SDS011;10488;50.846;4.078;2022-09-01T12:40:43;5.90;;;1.38;;
20657;SDS011;10488;50.846;4.078;2022-09-01T12:43:25;3.88;;;1.48;;
20657;SDS011;10488;50.846;4.078;2022-09-01T12:45:52;3.03;;;1.58;;
20657;SDS011;10488;50.846;4.078;2022-09-01T12:50:57;2.38;;;1.48;;
20657;SDS011;10488;50.846;4.078;2022-09-01T12:53:25;2.20;;;1.17;;
20657;SDS011;10488;50.846;4.078;2022-09-01T12:55:54;2.40;;;1.50;;
20657;SDS011;10488;50.846;4.078;2022-09-01T12:58:31;1.83;;;1.58;;
20657;SDS011;10488;50.846;4.078;2022-09-01T13:01:04;5.68;;;1.40;;
20657;SDS011;10488;50.846;4.078;2022-09-01T13:03:32;2.10;;;1.85;;
20657;SDS011;10488;50.846;4.078;2022-09-01T13:05:59;3.55;;;1.30;;
20657;SDS011;10488;50.846;4.078;2022-09-01T13:08:28;12.88;;;2.10;;
20657;SDS011;10488;50.846;4.078;2022-09-01T13:13:37;4.07;;;1.67;;
20657;SDS011;10488;50.846;4.078;2022-09-01T13:16:03;3.58;;;1.50;;
20657;SDS011;10488;50.846;4.078;2022-09-01T13:18:36;5.63;;;1.60;;
20657;SDS011;10488;50.846;4.078;2022-09-01T13:21:04;6.63;;;1.90;;
20657;SDS011;10488;50.846;4.078;2022-09-01T13:23:30;4.25;;;1.63;;
20657;SDS011;10488;50.846;4.078;2022-09-01T13:25:56;1.88;;;1.35;;
20657;SDS011;10488;50.846;4.078;2022-09-01T13:28:23;3.42;;;1.75;;
20657;SDS011;10488;50.846;4.078;2022-09-01T13:31:00;4.95;;;1.85;;
20657;SDS011;10488;50.846;4.078;2022-09-01T13:33:30;3.50;;;1.50;;
20657;SDS011;10488;50.846;4.078;2022-09-01T13:35:56;5.30;;;1.90;;
20657;SDS011;10488;50.846;4.078;2022-09-01T13:38:22;3.13;;;2.13;;
20657;SDS011;10488;50.846;4.078;2022-09-01T13:40:48;4.00;;;1.67;;
20657;SDS011;10488;50.846;4.078;2022-09-01T13:43:16;4.35;;;1.30;;
20657;SDS011;10488;50.846;4.078;2022-09-01T13:45:46;3.67;;;1.50;;
20657;SDS011;10488;50.846;4.078;2022-09-01T13:48:14;3.30;;;1.60;;
20657;SDS011;10488;50.846;4.078;2022-09-01T13:50:40;2.83;;;1.33;;
20657;SDS011;10488;50.846;4.078;2022-09-01T13:53:07;7.25;;;1.52;;
20657;SDS011;10488;50.846;4.078;2022-09-01T13:55:34;11.07;;;2.10;;
20657;SDS011;10488;50.846;4.078;2022-09-01T13:58:03;2.03;;;1.35;;
20657;SDS011;10488;50.846;4.078;2022-09-01T14:00:30;6.15;;;1.85;;
20657;SDS011;10488;50.846;4.078;2022-09-01T14:02:59;4.70;;;2.00;;
20657;SDS011;10488;50.846;4.078;2022-09-01T14:05:31;2.10;;;1.50;;
20657;SDS011;10488;50.846;4.078;2022-09-01T14:07:59;3.97;;;1.30;;
20657;SDS011;10488;50.846;4.078;2022-09-01T14:10:26;2.70;;;1.67;;
20657;SDS011;10488;50.846;4.078;2022-09-01T14:12:55;7.60;;;1.55;;
20657;SDS011;10488;50.846;4.078;2022-09-01T14:15:21;3.25;;;1.52;;
20657;SDS011;10488;50.846;4.078;2022-09-01T14:17:50;2.75;;;1.70;;
20657;SDS011;10488;50.846;4.078;2022-09-01T14:20:22;2.88;;;1.50;;
20657;SDS011;10488;50.846;4.078;2022-09-01T14:22:50;3.90;;;1.60;;
20657;SDS011;10488;50.846;4.078;2022-09-01T14:25:17;4.05;;;1.40;;
20657;SDS011;10488;50.846;4.078;2022-09-01T14:27:44;2.60;;;1.67;;
20657;SDS011;10488;50.846;4.078;2022-09-01T14:30:13;1.45;;;1.30;;
20657;SDS011;10488;50.846;4.078;2022-09-01T14:32:41;3.92;;;1.75;;
20657;SDS011;10488;50.846;4.078;2022-09-01T14:35:07;2.83;;;1.40;;
20657;SDS011;10488;50.846;4.078;2022-09-01T14:37:35;4.50;;;1.70;;
20657;SDS011;10488;50.846;4.078;2022-09-01T14:40:03;4.50;;;1.60;;
20657;SDS011;10488;50.846;4.078;2022-09-01T14:42:30;8.98;;;1.80;;
20657;SDS011;10488;50.846;4.078;2022-09-01T14:44:56;5.38;;;1.83;;
20657;SDS011;10488;50.846;4.078;2022-09-01T14:47:22;3.75;;;1.45;;
20657;SDS011;10488;50.846;4.078;2022-09-01T14:49:49;4.95;;;1.48;;
20657;SDS011;10488;50.846;4.078;2022-09-01T14:52:18;6.18;;;1.15;;
20657;SDS011;10488;50.846;4.078;2022-09-01T14:54:45;2.67;;;1.40;;
20657;SDS011;10488;50.846;4.078;2022-09-01T14:57:12;1.73;;;1.35;;
20657;SDS011;10488;50.846;4.078;2022-09-01T14:59:38;3.88;;;1.60;;
20657;SDS011;10488;50.846;4.078;2022-09-01T15:02:05;1.80;;;1.30;;
20657;SDS011;10488;50.846;4.078;2022-09-01T15:04:33;7.50;;;1.92;;
20657;SDS011;10488;50.846;4.078;2022-09-01T15:06:59;3.33;;;1.58;;
20657;SDS011;10488;50.846;4.078;2022-09-01T15:09:28;2.45;;;1.73;;
20657;SDS011;10488;50.846;4.078;2022-09-01T15:11:54;2.30;;;1.27;;
20657;SDS011;10488;50.846;4.078;2022-09-01T15:14:19;2.33;;;1.42;;
20657;SDS011;10488;50.846;4.078;2022-09-01T15:16:45;3.13;;;1.58;;
20657;SDS011;10488;50.846;4.078;2022-09-01T15:19:12;1.55;;;1.40;;
20657;SDS011;10488;50.846;4.078;2022-09-01T15:21:38;1.83;;;1.40;;
20657;SDS011;10488;50.846;4.078;2022-09-01T15:24:06;4.68;;;1.50;;
20657;SDS011;10488;50.846;4.078;2022-09-01T15:26:33;4.18;;;1.60;;
20657;SDS011;10488;50.846;4.078;2022-09-01T15:28:59;5.90;;;1.63;;
20657;SDS011;10488;50.846;4.078;2022-09-01T15:31:28;6.75;;;1.83;;
20657;SDS011;10488;50.846;4.078;2022-09-01T15:33:57;3.88;;;1.67;;
20657;SDS011;10488;50.846;4.078;2022-09-01T15:36:25;7.78;;;1.40;;
20657;SDS011;10488;50.846;4.078;2022-09-01T15:38:52;2.85;;;1.55;;
20657;SDS011;10488;50.846;4.078;2022-09-01T15:41:23;1.75;;;1.55;;
20657;SDS011;10488;50.846;4.078;2022-09-01T15:43:53;4.07;;;1.67;;
20657;SDS011;10488;50.846;4.078;2022-09-01T15:46:20;3.00;;;1.60;;
20657;SDS011;10488;50.846;4.078;2022-09-01T15:48:46;2.58;;;1.48;;
20657;SDS011;10488;50.846;4.078;2022-09-01T15:53:47;3.80;;;1.40;;
20657;SDS011;10488;50.846;4.078;2022-09-01T15:56:14;2.88;;;1.15;;
20657;SDS011;10488;50.846;4.078;2022-09-01T15:58:42;2.33;;;1.20;;
20657;SDS011;10488;50.846;4.078;2022-09-01T16:01:09;3.08;;;1.25;;
20657;SDS011;10488;50.846;4.078;2022-09-01T16:03:34;2.33;;;1.42;;
20657;SDS011;10488;50.846;4.078;2022-09-01T16:06:00;1.35;;;1.25;;
20657;SDS011;10488;50.846;4.078;2022-09-01T16:08:26;4.50;;;1.00;;
20657;SDS011;10488;50.846;4.078;2022-09-01T16:10:52;3.55;;;1.45;;
20657;SDS011;10488;50.846;4.078;2022-09-01T16:13:19;3.72;;;1.25;;
20657;SDS011;10488;50.846;4.078;2022-09-01T16:15:55;1.98;;;1.30;;